createdAt,value
2023-04-15T00:00:10.927Z,8.38
2023-04-15T00:02:10.879Z,8.39
2023-04-15T00:04:10.757Z,8.4
2023-04-15T00:06:10.802Z,8.35
2023-04-15T00:08:11.205Z,8.37
2023-04-15T00:10:10.674Z,8.34
2023-04-15T00:12:10.684Z,8.24
2023-04-15T00:14:12.597Z,8.33
2023-04-15T00:16:12.503Z,8.12
2023-04-15T00:18:12.310Z,8.03
2023-04-15T00:20:12.620Z,7.72
2023-04-15T00:22:12.314Z,7.15
2023-04-15T00:24:12.431Z,7.35
2023-04-15T00:26:12.351Z,7.56
2023-04-15T00:28:49.920Z,7.67
2023-04-15T00:30:49.961Z,7.68
2023-04-15T00:32:49.981Z,7.66
2023-04-15T00:34:50.107Z,7.63
2023-04-15T00:36:49.880Z,7.56
2023-04-15T00:38:49.973Z,7.43
2023-04-15T00:40:49.928Z,7.55
2023-04-15T00:43:47.025Z,7.53
2023-04-15T00:45:47.190Z,7.47
2023-04-15T00:47:47.121Z,7.45
2023-04-15T00:49:47.029Z,7.34
2023-04-15T00:51:47.039Z,7.4
2023-04-15T00:53:47.025Z,7.39
2023-04-15T00:55:47.008Z,7.35
2023-04-15T00:59:27.343Z,7.27
2023-04-15T01:01:27.229Z,7.15
2023-04-15T01:03:27.378Z,7.08
2023-04-15T01:05:27.189Z,7.11
2023-04-15T01:07:27.191Z,7.1
2023-04-15T01:09:27.148Z,7.07
2023-04-15T01:11:27.160Z,7
2023-04-15T01:14:31.697Z,6.98
2023-04-15T01:16:31.777Z,7.02
2023-04-15T01:18:31.717Z,7.03
2023-04-15T01:20:31.683Z,7.02
2023-04-15T01:22:31.657Z,7.07
2023-04-15T01:24:31.670Z,7.11
2023-04-15T01:26:31.690Z,7.1
2023-04-15T01:29:59.096Z,6.99
2023-04-15T01:31:59.097Z,6.9
2023-04-15T01:33:59.064Z,6.79
2023-04-15T01:35:59.119Z,6.83
2023-04-15T01:37:59.221Z,6.75
2023-04-15T01:39:59.046Z,6.79
2023-04-15T01:41:59.073Z,6.84
2023-04-15T01:44:56.684Z,6.74
2023-04-15T01:46:56.786Z,6.67
2023-04-15T01:48:56.673Z,6.68
2023-04-15T01:50:56.638Z,6.67
2023-04-15T01:52:56.644Z,6.59
2023-04-15T01:54:56.657Z,6.51
2023-04-15T01:56:56.681Z,6.53
2023-04-15T01:59:55.612Z,6.48
2023-04-15T02:01:55.867Z,6.47
2023-04-15T02:03:55.704Z,6.41
2023-04-15T02:05:55.657Z,6.46
2023-04-15T02:07:55.581Z,6.43
2023-04-15T02:09:55.662Z,6.36
2023-04-15T02:11:55.587Z,6.32
2023-04-15T02:14:45.680Z,6.33
2023-04-15T02:16:45.649Z,6.39
2023-04-15T02:18:45.622Z,6.45
2023-04-15T02:20:45.656Z,6.46
2023-04-15T02:22:45.605Z,6.54
2023-04-15T02:24:45.642Z,6.53
2023-04-15T02:26:45.613Z,6.48
2023-04-15T02:28:45.638Z,6.32
2023-04-15T02:30:00.619Z,6.29
2023-04-15T02:32:00.623Z,6.19
2023-04-15T02:34:00.633Z,6.19
2023-04-15T02:36:00.649Z,6.18
2023-04-15T02:38:00.574Z,6.11
2023-04-15T02:40:00.629Z,5.92
2023-04-15T02:42:00.659Z,5.23
2023-04-15T02:45:52.329Z,5.59
2023-04-15T02:47:52.256Z,5.6
2023-04-15T02:49:52.286Z,5.66
2023-04-15T02:51:52.238Z,5.73
2023-04-15T02:53:52.952Z,5.85
2023-04-15T02:55:52.327Z,5.86
2023-04-15T02:57:52.244Z,5.88
2023-04-15T03:00:50.228Z,5.9
2023-04-15T03:02:50.185Z,5.91
2023-04-15T03:04:50.106Z,5.87
2023-04-15T03:06:50.240Z,5.84
2023-04-15T03:08:50.216Z,5.74
2023-04-15T03:10:50.107Z,5.78
2023-04-15T03:12:50.084Z,5.75
2023-04-15T03:15:26.478Z,5.8
2023-04-15T03:17:26.314Z,5.75
2023-04-15T03:19:26.294Z,5.72
2023-04-15T03:21:26.342Z,5.76
2023-04-15T03:23:26.279Z,5.79
2023-04-15T03:25:26.317Z,5.78
2023-04-15T03:27:26.315Z,5.82
2023-04-15T03:29:26.349Z,5.77
2023-04-15T03:31:02.933Z,5.78
2023-04-15T03:33:03.072Z,5.68
2023-04-15T03:35:03.140Z,5.63
2023-04-15T03:37:02.898Z,5.64
2023-04-15T03:39:02.937Z,5.58
2023-04-15T03:41:02.895Z,5.58
2023-04-15T03:43:02.874Z,5.3
2023-04-15T03:46:01.969Z,5.38
2023-04-15T03:48:11.367Z,5.48
2023-04-15T03:50:01.496Z,5.39
2023-04-15T03:52:01.651Z,5.43
2023-04-15T03:54:01.591Z,5.46
2023-04-15T03:56:01.515Z,5.48
2023-04-15T03:58:01.611Z,5.52
2023-04-15T04:01:41.544Z,5.52
2023-04-15T04:03:41.791Z,5.54
2023-04-15T04:05:41.748Z,5.48
2023-04-15T04:07:41.509Z,5.49
2023-04-15T04:09:41.518Z,5.45
2023-04-15T04:11:41.727Z,5.74
2023-04-15T04:13:41.582Z,6.32
2023-04-15T04:16:43.008Z,9.01
2023-04-15T04:18:42.945Z,10.75
2023-04-15T04:20:43.111Z,12.56
2023-04-15T04:22:42.941Z,13.8
2023-04-15T04:24:42.982Z,14.47
2023-04-15T04:26:43.052Z,15.07
2023-04-15T04:28:42.938Z,16.51
2023-04-15T04:32:02.635Z,17.85
2023-04-15T04:34:02.566Z,18.64
2023-04-15T04:36:02.663Z,19.62
2023-04-15T04:38:02.632Z,20.21
2023-04-15T04:40:02.547Z,19.6
2023-04-15T04:42:02.593Z,20.56
2023-04-15T04:44:02.672Z,21.48
2023-04-15T04:46:17.077Z,20.91
2023-04-15T04:48:17.103Z,20.04
2023-04-15T04:50:16.956Z,21.2
2023-04-15T04:52:17.133Z,21.96
2023-04-15T04:54:17.017Z,21.64
2023-04-15T04:56:16.952Z,22.04
2023-04-15T04:58:17.280Z,23.21
2023-04-15T05:00:17.033Z,23.58
2023-04-15T05:01:58.225Z,21.89
2023-04-15T05:03:58.420Z,20.83
2023-04-15T05:05:58.150Z,22.9
2023-04-15T05:07:58.217Z,24.08
2023-04-15T05:09:58.201Z,24
2023-04-15T05:11:58.167Z,23.91
2023-04-15T05:13:58.195Z,23.47
2023-04-15T05:17:35.753Z,21.88
2023-04-15T05:19:35.713Z,20.59
2023-04-15T05:21:37.063Z,19.74
2023-04-15T05:23:35.881Z,18.04
2023-04-15T05:25:35.703Z,16.72
2023-04-15T05:27:35.749Z,16.29
2023-04-15T05:29:35.762Z,15.72
2023-04-15T05:32:13.489Z,15.09
2023-04-15T05:34:13.313Z,15.08
2023-04-15T05:36:13.339Z,15.29
2023-04-15T05:38:13.344Z,15.47
2023-04-15T05:40:13.389Z,15.16
2023-04-15T05:42:13.357Z,14.64
2023-04-15T05:44:13.384Z,14.59
2023-04-15T05:47:20.213Z,15.2
2023-04-15T05:49:20.214Z,14.93
2023-04-15T05:51:20.045Z,13.88
2023-04-15T05:53:20.304Z,14.11
2023-04-15T05:55:20.106Z,13.53
2023-04-15T05:57:20.047Z,14
2023-04-15T05:59:20.055Z,13.3
2023-04-15T06:02:11.698Z,13.06
2023-04-15T06:04:11.796Z,12.73
2023-04-15T06:06:11.726Z,12.41
2023-04-15T06:08:11.626Z,13.17
2023-04-15T06:10:11.660Z,13.01
2023-04-15T06:12:11.575Z,13.21
2023-04-15T06:14:11.890Z,13.96
2023-04-15T06:16:11.611Z,13.66
2023-04-15T06:17:37.496Z,14.42
2023-04-15T06:19:37.455Z,14.88
2023-04-15T06:21:37.497Z,14.13
2023-04-15T06:23:37.465Z,13.68
2023-04-15T06:25:37.452Z,13.73
2023-04-15T06:27:37.618Z,13.83
2023-04-15T06:29:37.615Z,15.05
2023-04-15T06:33:13.366Z,13.79
2023-04-15T06:35:13.393Z,14.09
2023-04-15T06:37:13.403Z,13.01
2023-04-15T06:39:13.310Z,14.69
2023-04-15T06:41:13.409Z,15.79
2023-04-15T06:43:13.390Z,16.34
2023-04-15T06:45:13.323Z,15.83
2023-04-15T06:48:16.047Z,16.35
2023-04-15T06:50:15.939Z,16.37
2023-04-15T06:52:15.929Z,16.67
2023-04-15T06:54:15.932Z,17.09
2023-04-15T06:56:16.030Z,17.42
2023-04-15T06:58:16.019Z,17.49
2023-04-15T07:00:15.943Z,17.42
2023-04-15T07:03:22.270Z,17.4
2023-04-15T07:05:22.207Z,17.43
2023-04-15T07:07:22.208Z,17.41
2023-04-15T07:09:22.250Z,17.1
2023-04-15T07:11:22.178Z,17.1
2023-04-15T07:13:22.288Z,17.5
2023-04-15T07:15:22.267Z,17.67
2023-04-15T07:18:54.418Z,17.67
2023-04-15T07:20:54.307Z,17.7
2023-04-15T07:22:54.216Z,16.19
2023-04-15T07:24:54.595Z,16.82
2023-04-15T07:26:54.176Z,16.65
2023-04-15T07:28:54.175Z,16.23
2023-04-15T07:30:54.222Z,15.82
2023-04-15T07:33:15.329Z,16.84
2023-04-15T07:35:15.241Z,16.64
2023-04-15T07:37:15.141Z,16.12
2023-04-15T07:39:15.200Z,17.41
2023-04-15T07:41:15.130Z,17.08
2023-04-15T07:43:15.172Z,16.94
2023-04-15T07:45:15.385Z,17.41
2023-04-15T07:47:15.152Z,17.42
2023-04-15T07:48:20.992Z,17.53
2023-04-15T07:50:21.190Z,16.01
2023-04-15T07:52:20.995Z,17.56
2023-04-15T07:54:21.022Z,18.06
2023-04-15T07:56:20.995Z,17.51
2023-04-15T07:58:21.059Z,18.12
2023-04-15T08:00:21.112Z,18.46
2023-04-15T08:02:21.150Z,18.64
2023-04-15T08:03:43.976Z,19.02
2023-04-15T08:05:43.808Z,18.96
2023-04-15T08:07:43.796Z,19.18
2023-04-15T08:09:43.811Z,19.46
2023-04-15T08:11:43.773Z,19.39
2023-04-15T08:13:43.749Z,19.52
2023-04-15T08:15:43.883Z,19.28
2023-04-15T08:19:23.917Z,19.65
2023-04-15T08:21:23.835Z,19.48
2023-04-15T08:23:23.797Z,19.52
2023-04-15T08:25:23.717Z,19.52
2023-04-15T08:27:23.736Z,18.99
2023-04-15T08:29:23.799Z,19.75
2023-04-15T08:31:23.782Z,19.72
2023-04-15T08:33:53.025Z,19.78
2023-04-15T08:35:53.024Z,20.4
2023-04-15T08:37:53.042Z,20.47
2023-04-15T08:39:52.978Z,20.13
2023-04-15T08:41:52.965Z,19.79
2023-04-15T08:43:53.048Z,19.81
2023-04-15T08:45:53.052Z,20.29
2023-04-15T08:47:53.287Z,19.89
2023-04-15T08:49:04.849Z,19.33
2023-04-15T08:51:04.657Z,18.84
2023-04-15T08:53:04.710Z,19.6
2023-04-15T08:55:04.733Z,19.85
2023-04-15T08:57:04.660Z,19.86
2023-04-15T08:59:04.720Z,19.76
2023-04-15T09:01:04.659Z,20.02
2023-04-15T09:03:04.747Z,20.09
2023-04-15T09:04:55.184Z,19.76
2023-04-15T09:06:54.976Z,19.8
2023-04-15T09:08:55.088Z,19.76
2023-04-15T09:10:55.343Z,19.79
2023-04-15T09:12:54.954Z,17.76
2023-04-15T09:14:54.969Z,18.85
2023-04-15T09:16:55.095Z,19.38
2023-04-15T09:19:29.632Z,19.09
2023-04-15T09:21:29.522Z,18.93
2023-04-15T09:23:29.537Z,19.14
2023-04-15T09:25:29.515Z,19.87
2023-04-15T09:27:29.530Z,20.1
2023-04-15T09:29:29.614Z,20.04
2023-04-15T09:31:29.587Z,20.19
2023-04-15T09:34:59.842Z,21.4
2023-04-15T09:37:00.150Z,20.52
2023-04-15T09:38:59.847Z,20.13
2023-04-15T09:40:59.785Z,20.16
2023-04-15T09:42:59.757Z,19.12
2023-04-15T09:44:59.781Z,19.87
2023-04-15T09:46:59.766Z,20.23
2023-04-15T09:50:06.892Z,20.32
2023-04-15T09:52:06.948Z,20.6
2023-04-15T09:54:06.822Z,19.67
2023-04-15T09:56:06.835Z,20.4
2023-04-15T09:58:06.873Z,20.57
2023-04-15T10:00:06.843Z,20.44
2023-04-15T10:02:06.856Z,20.92
2023-04-15T10:05:29.823Z,21.6
2023-04-15T10:07:29.124Z,21.31
2023-04-15T10:09:29.145Z,19.89
2023-04-15T10:11:29.740Z,19.72
2023-04-15T10:13:29.130Z,20.73
2023-04-15T10:15:29.186Z,20.57
2023-04-15T10:17:30.501Z,20.87
2023-04-15T10:19:57.492Z,21.11
2023-04-15T10:21:57.684Z,21.17
2023-04-15T10:23:57.591Z,21.54
2023-04-15T10:25:57.569Z,21.95
2023-04-15T10:27:57.674Z,21.95
2023-04-15T10:29:57.553Z,21.94
2023-04-15T10:31:57.508Z,21.29
2023-04-15T10:33:57.464Z,21.44
2023-04-15T10:35:42.693Z,21.74
2023-04-15T10:37:42.632Z,21.76
2023-04-15T10:39:42.740Z,22.14
2023-04-15T10:41:42.615Z,22.36
2023-04-15T10:43:42.599Z,22.43
2023-04-15T10:45:42.665Z,21.74
2023-04-15T10:47:42.715Z,21.49
2023-04-15T10:50:46.130Z,20.75
2023-04-15T10:52:46.210Z,20.32
2023-04-15T10:54:46.132Z,20.67
2023-04-15T10:56:46.107Z,20.68
2023-04-15T10:58:46.170Z,20.75
2023-04-15T11:00:46.132Z,21.1
2023-04-15T11:02:46.169Z,21.06
2023-04-15T11:05:27.285Z,20.66
2023-04-15T11:07:27.084Z,20.87
2023-04-15T11:09:27.150Z,20.78
2023-04-15T11:11:27.119Z,20.73
2023-04-15T11:13:27.155Z,21.1
2023-04-15T11:15:27.079Z,20.99
2023-04-15T11:17:27.160Z,20.8
2023-04-15T11:19:27.147Z,21.18
2023-04-15T11:21:00.854Z,21.4
2023-04-15T11:23:08.066Z,21.41
2023-04-15T11:25:00.861Z,21.34
2023-04-15T11:27:01.230Z,21.74
2023-04-15T11:29:00.839Z,20.94
2023-04-15T11:31:00.910Z,20.56
2023-04-15T11:33:01.025Z,20.61
2023-04-15T11:36:46.780Z,20.33
2023-04-15T11:38:46.584Z,20.73
2023-04-15T11:40:47.294Z,20.86
2023-04-15T11:42:49.806Z,20.92
2023-04-15T11:44:46.712Z,20.82
2023-04-15T11:46:46.768Z,20.95
2023-04-15T11:48:46.485Z,21.38
2023-04-15T11:51:49.491Z,20.44
2023-04-15T11:53:49.547Z,20.99
2023-04-15T11:55:49.460Z,21.4
2023-04-15T11:57:49.773Z,21.66
2023-04-15T11:59:49.499Z,21.51
2023-04-15T12:01:49.442Z,21.63
2023-04-15T12:03:49.839Z,21.62
2023-04-15T12:06:17.634Z,21.65
2023-04-15T12:08:17.604Z,21.48
2023-04-15T12:10:17.682Z,21.11
2023-04-15T12:12:17.759Z,20.02
2023-04-15T12:14:17.693Z,20.21
2023-04-15T12:16:17.799Z,20.56
2023-04-15T12:18:17.727Z,21.01
2023-04-15T12:20:17.832Z,21.17
2023-04-15T12:21:28.141Z,21.32
2023-04-15T12:23:28.163Z,21.48
2023-04-15T12:25:28.198Z,20.1
2023-04-15T12:27:29.672Z,20.78
2023-04-15T12:29:28.147Z,21.25
2023-04-15T12:31:28.199Z,21.14
2023-04-15T12:33:28.136Z,20.93
2023-04-15T12:35:28.144Z,20.81
2023-04-15T12:36:40.464Z,21.05
2023-04-15T12:38:40.441Z,20.42
2023-04-15T12:40:40.427Z,20.94
2023-04-15T12:42:40.594Z,20.43
2023-04-15T12:44:40.509Z,19.54
2023-04-15T12:46:40.437Z,19.74
2023-04-15T12:48:40.530Z,19.16
2023-04-15T12:51:50.020Z,20.05
2023-04-15T12:53:50.001Z,20.58
2023-04-15T12:55:50.234Z,20.9
2023-04-15T12:57:50.051Z,20.99
2023-04-15T12:59:49.966Z,21.15
2023-04-15T13:01:50.117Z,21.25
2023-04-15T13:03:50.063Z,20.91
2023-04-15T13:05:49.991Z,20.85
2023-04-15T13:07:35.300Z,20.52
2023-04-15T13:09:35.259Z,20.96
2023-04-15T13:11:35.270Z,21.03
2023-04-15T13:13:35.334Z,21.09
2023-04-15T13:15:35.269Z,21.2
2023-04-15T13:17:35.294Z,20.03
2023-04-15T13:19:35.339Z,20.53
2023-04-15T13:22:45.111Z,19.83
2023-04-15T13:24:45.184Z,19.51
2023-04-15T13:26:45.087Z,20.38
2023-04-15T13:28:45.068Z,20.78
2023-04-15T13:30:45.370Z,20.94
2023-04-15T13:32:45.399Z,20.56
2023-04-15T13:34:45.350Z,20.62
2023-04-15T13:37:59.159Z,20.48
2023-04-15T13:39:59.097Z,20.67
2023-04-15T13:41:59.142Z,20.96
2023-04-15T13:43:59.129Z,20.91
2023-04-15T13:45:59.168Z,20.89
2023-04-15T13:47:59.114Z,20.33
2023-04-15T13:49:59.086Z,20.3
2023-04-15T13:52:53.806Z,20.12
2023-04-15T13:55:07.116Z,20.12
2023-04-15T13:56:53.767Z,20.01
2023-04-15T13:58:54.970Z,19.96
2023-04-15T14:00:53.785Z,19.91
2023-04-15T14:02:53.853Z,19.97
2023-04-15T14:04:53.763Z,20.1
2023-04-15T14:07:43.651Z,20.29
2023-04-15T14:09:43.593Z,19.66
2023-04-15T14:11:43.574Z,20.35
2023-04-15T14:13:43.526Z,20.42
2023-04-15T14:15:43.539Z,20.48
2023-04-15T14:17:43.639Z,20.52
2023-04-15T14:19:43.543Z,20.51
2023-04-15T14:21:43.530Z,20.09
2023-04-15T14:23:14.027Z,20.05
2023-04-15T14:25:20.130Z,20.17
2023-04-15T14:27:13.911Z,20.24
2023-04-15T14:29:13.974Z,19.92
2023-04-15T14:31:13.920Z,19.95
2023-04-15T14:33:14.250Z,20.07
2023-04-15T14:35:13.916Z,20.04
2023-04-15T14:38:55.449Z,19.49
2023-04-15T14:40:55.480Z,19.54
2023-04-15T14:42:55.495Z,19.64
2023-04-15T14:44:55.413Z,19.72
2023-04-15T14:46:55.478Z,19.85
2023-04-15T14:48:55.567Z,19.86
2023-04-15T14:50:55.453Z,19.76
2023-04-15T14:53:24.796Z,19.8
2023-04-15T14:55:24.471Z,19.72
2023-04-15T14:57:24.543Z,19.87
2023-04-15T14:59:24.454Z,19.48
2023-04-15T15:01:24.474Z,19.61
2023-04-15T15:03:24.542Z,19.54
2023-04-15T15:05:24.578Z,19.53
2023-04-15T15:08:47.923Z,19.55
2023-04-15T15:10:48.841Z,19.06
2023-04-15T15:12:47.878Z,19.03
2023-04-15T15:14:47.831Z,19.03
2023-04-15T15:16:47.863Z,19.15
2023-04-15T15:18:47.887Z,18.86
2023-04-15T15:20:47.857Z,18.9
2023-04-15T15:23:54.422Z,18.95
2023-04-15T15:25:54.201Z,19
2023-04-15T15:27:54.221Z,19.09
2023-04-15T15:29:54.225Z,19.05
2023-04-15T15:31:54.290Z,18.99
2023-04-15T15:33:54.240Z,19.02
2023-04-15T15:35:54.197Z,18.76
2023-04-15T15:39:06.292Z,18.64
2023-04-15T15:41:06.105Z,18.63
2023-04-15T15:43:06.207Z,18.74
2023-04-15T15:45:06.042Z,18.93
2023-04-15T15:47:06.170Z,18.86
2023-04-15T15:49:06.239Z,18.67
2023-04-15T15:51:06.100Z,18.61
2023-04-15T15:54:23.787Z,18.59
2023-04-15T15:56:23.602Z,18.41
2023-04-15T15:58:23.515Z,18.36
2023-04-15T16:00:23.647Z,18.18
2023-04-15T16:02:35.030Z,18.12
2023-04-15T16:04:23.813Z,18.11
2023-04-15T16:06:23.552Z,18.11
2023-04-15T16:09:04.367Z,17.95
2023-04-15T16:11:04.255Z,17.9
2023-04-15T16:13:04.353Z,17.89
2023-04-15T16:15:04.264Z,17.91
2023-04-15T16:17:04.160Z,17.85
2023-04-15T16:19:04.515Z,17.53
2023-04-15T16:21:04.182Z,17.52
2023-04-15T16:23:04.221Z,17.42
2023-04-15T16:24:56.560Z,17.42
2023-04-15T16:26:56.499Z,17.45
2023-04-15T16:28:56.647Z,17.35
2023-04-15T16:30:56.510Z,17.26
2023-04-15T16:32:56.731Z,17.25
2023-04-15T16:34:56.598Z,17.3
2023-04-15T16:36:56.491Z,17.13
2023-04-15T16:39:21.574Z,16.98
2023-04-15T16:41:21.452Z,16.84
2023-04-15T16:43:21.512Z,16.84
2023-04-15T16:45:21.776Z,16.75
2023-04-15T16:47:21.450Z,16.78
2023-04-15T16:49:21.660Z,16.77
2023-04-15T16:51:21.407Z,16.68
2023-04-15T16:53:21.463Z,16.55
2023-04-15T16:54:48.980Z,16.52
2023-04-15T16:56:48.916Z,16.4
2023-04-15T16:58:48.982Z,16.37
2023-04-15T17:00:49.094Z,16.14
2023-04-15T17:02:49.097Z,16.02
2023-04-15T17:04:48.990Z,15.88
2023-04-15T17:06:48.899Z,15.81
2023-04-15T17:10:23.864Z,15.62
2023-04-15T17:12:23.986Z,15.44
2023-04-15T17:14:23.870Z,15.33
2023-04-15T17:16:23.978Z,15.14
2023-04-15T17:18:23.832Z,15.08
2023-04-15T17:20:23.853Z,14.94
2023-04-15T17:22:23.864Z,14.9
2023-04-15T17:25:07.080Z,14.72
2023-04-15T17:27:07.264Z,14.67
2023-04-15T17:29:07.188Z,14.56
2023-04-15T17:31:07.116Z,14.52
2023-04-15T17:33:53.008Z,14.43
2023-04-15T17:35:07.067Z,14.36
2023-04-15T17:37:07.138Z,14.27
2023-04-15T17:40:43.759Z,14.11
2023-04-15T17:42:43.838Z,13.92
2023-04-15T17:44:43.732Z,13.85
2023-04-15T17:46:43.700Z,13.77
2023-04-15T17:48:43.748Z,13.63
2023-04-15T17:50:43.725Z,13.49
2023-04-15T17:52:43.692Z,13.35
2023-04-15T17:55:29.896Z,13.24
2023-04-15T17:57:29.921Z,13.15
2023-04-15T17:59:29.965Z,13.05
2023-04-15T18:01:29.887Z,13.07
2023-04-15T18:03:29.995Z,12.99
2023-04-15T18:05:29.983Z,12.96
2023-04-15T18:07:30.023Z,12.9
2023-04-15T18:10:38.951Z,12.92
2023-04-15T18:12:38.961Z,12.94
2023-04-15T18:14:38.971Z,12.91
2023-04-15T18:16:38.956Z,12.79
2023-04-15T18:18:38.955Z,12.75
2023-04-15T18:20:38.914Z,12.66
2023-04-15T18:22:38.917Z,12.57
2023-04-15T18:26:09.299Z,12.47
2023-04-15T18:28:09.236Z,12.4
2023-04-15T18:30:09.763Z,12.34
2023-04-15T18:32:09.239Z,12.26
2023-04-15T18:34:09.377Z,12.26
2023-04-15T18:36:09.264Z,12.2
2023-04-15T18:38:09.260Z,12.08
2023-04-15T18:41:27.351Z,11.93
2023-04-15T18:43:27.330Z,11.88
2023-04-15T18:45:27.381Z,11.83
2023-04-15T18:47:27.395Z,11.74
2023-04-15T18:49:27.561Z,11.61
2023-04-15T18:51:27.377Z,11.65
2023-04-15T18:53:27.345Z,11.63
2023-04-15T18:55:55.729Z,11.69
2023-04-15T18:57:56.709Z,11.64
2023-04-15T18:59:55.454Z,11.56
2023-04-15T19:01:55.533Z,11.49
2023-04-15T19:03:55.584Z,11.51
2023-04-15T19:05:55.609Z,11.57
2023-04-15T19:07:55.481Z,11.56
2023-04-15T19:09:55.611Z,11.62
2023-04-15T19:11:32.113Z,11.62
2023-04-15T19:13:32.086Z,11.68
2023-04-15T19:15:32.107Z,11.75
2023-04-15T19:17:32.131Z,11.72
2023-04-15T19:19:32.048Z,11.68
2023-04-15T19:21:32.077Z,11.71
2023-04-15T19:23:32.097Z,11.77
2023-04-15T19:26:20.018Z,11.78
2023-04-15T19:28:20.156Z,11.8
2023-04-15T19:30:19.856Z,11.78
2023-04-15T19:32:20.001Z,11.82
2023-04-15T19:34:20.087Z,11.83
2023-04-15T19:36:19.869Z,11.84
2023-04-15T19:38:19.908Z,11.7
2023-04-15T19:40:19.850Z,11.71
2023-04-15T19:41:47.117Z,11.73
2023-04-15T19:43:47.160Z,11.64
2023-04-15T19:45:47.159Z,11.6
2023-04-15T19:47:47.086Z,11.55
2023-04-15T19:49:47.165Z,11.51
2023-04-15T19:51:47.096Z,11.49
2023-04-15T19:53:47.197Z,11.42
2023-04-15T19:57:20.458Z,11.29
2023-04-15T19:59:20.497Z,11.25
2023-04-15T20:01:20.493Z,11.22
2023-04-15T20:03:20.566Z,11.15
2023-04-15T20:05:20.685Z,11.04
2023-04-15T20:07:20.474Z,10.88
2023-04-15T20:09:20.499Z,10.79
2023-04-15T20:12:47.962Z,10.8
2023-04-15T20:14:08.103Z,10.76
2023-04-15T20:16:08.142Z,10.68
2023-04-15T20:18:08.126Z,10.63
2023-04-15T20:20:08.145Z,10.66
2023-04-15T20:22:08.136Z,10.65
2023-04-15T20:24:08.245Z,10.59
2023-04-15T20:27:10.358Z,10.7
2023-04-15T20:29:10.408Z,10.68
2023-04-15T20:31:10.411Z,10.68
2023-04-15T20:33:10.386Z,10.62
2023-04-15T20:35:10.324Z,10.55
2023-04-15T20:37:10.521Z,10.53
2023-04-15T20:39:10.346Z,10.5
2023-04-15T20:43:02.611Z,10.31
2023-04-15T20:45:02.609Z,10.23
2023-04-15T20:47:02.649Z,10.2
2023-04-15T20:49:02.687Z,10.12
2023-04-15T20:51:02.587Z,10.13
2023-04-15T20:53:02.603Z,10.16
2023-04-15T20:55:02.572Z,10.11
2023-04-15T20:58:01.717Z,10.02
2023-04-15T21:00:01.791Z,10
2023-04-15T21:02:01.830Z,10
2023-04-15T21:04:01.807Z,10.02
2023-04-15T21:06:01.862Z,9.99
2023-04-15T21:08:01.713Z,9.97
2023-04-15T21:10:01.768Z,9.81
2023-04-15T21:13:24.227Z,9.74
2023-04-15T21:15:24.218Z,9.73
2023-04-15T21:17:24.243Z,9.75
2023-04-15T21:19:24.238Z,9.75
2023-04-15T21:21:24.207Z,9.61
2023-04-15T21:23:24.199Z,9.62
2023-04-15T21:25:24.267Z,9.55
2023-04-15T21:27:45.568Z,9.5
2023-04-15T21:29:45.518Z,9.48
2023-04-15T21:31:45.538Z,9.44
2023-04-15T21:33:45.470Z,9.43
2023-04-15T21:35:45.568Z,9.44
2023-04-15T21:37:45.478Z,9.45
2023-04-15T21:39:45.483Z,9.39
2023-04-15T21:41:45.513Z,9.39
2023-04-15T21:43:35.860Z,9.35
2023-04-15T21:45:35.961Z,9.41
2023-04-15T21:47:57.177Z,9.34
2023-04-15T21:49:35.921Z,9.28
2023-04-15T21:51:35.834Z,9.33
2023-04-15T21:53:35.829Z,9.33
2023-04-15T21:55:35.870Z,9.31
2023-04-15T21:58:12.414Z,9.25
2023-04-15T22:00:12.431Z,9.14
2023-04-15T22:02:12.357Z,9.18
2023-04-15T22:04:12.483Z,9.2
2023-04-15T22:06:12.708Z,9.16
2023-04-15T22:08:12.487Z,9.15
2023-04-15T22:10:12.338Z,9.07
2023-04-15T22:13:13.709Z,9.01
2023-04-15T22:15:13.841Z,9.02
2023-04-15T22:17:13.553Z,8.9
2023-04-15T22:19:13.567Z,8.96
2023-04-15T22:21:13.609Z,8.88
2023-04-15T22:23:13.582Z,8.94
2023-04-15T22:25:13.567Z,8.85
2023-04-15T22:27:13.623Z,8.88
2023-04-15T22:28:27.952Z,8.84
2023-04-15T22:30:27.963Z,8.82
2023-04-15T22:32:28.010Z,8.82
2023-04-15T22:34:27.931Z,8.76
2023-04-15T22:36:27.920Z,8.58
2023-04-15T22:38:27.989Z,8.47
2023-04-15T22:40:27.943Z,8.54
2023-04-15T22:43:31.958Z,8.54
2023-04-15T22:45:31.997Z,8.54
2023-04-15T22:47:32.007Z,8.63
2023-04-15T22:49:31.929Z,8.61
2023-04-15T22:51:31.922Z,8.56
2023-04-15T22:53:31.951Z,8.52
2023-04-15T22:55:31.967Z,8.46
2023-04-15T22:57:32.523Z,8.43
2023-04-15T22:58:40.590Z,8.41
2023-04-15T23:00:40.609Z,8.38
2023-04-15T23:02:40.682Z,8.37
2023-04-15T23:04:40.706Z,8.33
2023-04-15T23:06:40.590Z,8.13
2023-04-15T23:08:40.687Z,8.17
2023-04-15T23:10:40.617Z,8.11
2023-04-15T23:12:40.627Z,8.15
2023-04-15T23:14:01.436Z,8
2023-04-15T23:16:01.485Z,8.05
2023-04-15T23:18:01.568Z,8.04
2023-04-15T23:20:03.133Z,8.04
2023-04-15T23:22:01.472Z,8.01
2023-04-15T23:24:01.461Z,7.87
2023-04-15T23:26:01.447Z,7.99
2023-04-15T23:29:47.290Z,7.86
2023-04-15T23:31:47.295Z,7.8
2023-04-15T23:33:47.238Z,7.84
2023-04-15T23:35:47.241Z,7.68
2023-04-15T23:37:47.290Z,7.69
2023-04-15T23:39:47.217Z,7.84
2023-04-15T23:41:47.239Z,7.9
2023-04-15T23:44:27.975Z,7.73
2023-04-15T23:46:28.000Z,7.78
2023-04-15T23:48:28.066Z,7.86
2023-04-15T23:50:27.975Z,7.82
2023-04-15T23:52:27.970Z,7.78
2023-04-15T23:54:27.987Z,7.9
2023-04-15T23:56:27.978Z,8.03
